createdAt,value
2023-12-30T00:01:37.609Z,41.88
2023-12-30T00:04:39.716Z,38.58
2023-12-30T00:07:41.800Z,36.38
2023-12-30T00:10:43.840Z,37.85
2023-12-30T00:16:48.489Z,45.25
2023-12-30T00:19:50.485Z,40.20
2023-12-30T00:22:52.657Z,41.03
2023-12-30T00:25:54.722Z,38.58
2023-12-30T00:28:59.453Z,38.58
2023-12-30T00:32:01.500Z,39.60
2023-12-30T00:35:03.728Z,38.65
2023-12-30T00:38:06.035Z,39.45
2023-12-30T00:41:08.053Z,40.28
2023-12-30T00:44:10.122Z,40.70
2023-12-30T00:47:13.049Z,45.15
2023-12-30T00:50:15.929Z,45.42
2023-12-30T00:53:17.987Z,45.17
2023-12-30T00:56:20.313Z,46.63
2023-12-30T00:59:22.719Z,43.10
2023-12-30T01:02:24.780Z,43.95
2023-12-30T01:05:27.812Z,44.95
2023-12-30T01:08:32.950Z,41.75
2023-12-30T01:11:35.110Z,44.13
2023-12-30T01:14:37.188Z,48.67
2023-12-30T01:17:40.378Z,48.40
2023-12-30T01:20:42.548Z,46.80
2023-12-30T01:23:44.733Z,48.08
2023-12-30T01:26:46.757Z,45.65
2023-12-30T01:29:48.946Z,45.28
2023-12-30T01:32:51.205Z,45.72
2023-12-30T01:35:53.323Z,46.08
2023-12-30T01:38:55.368Z,50.75
2023-12-30T01:41:57.662Z,48.45
2023-12-30T01:44:59.739Z,47.28
2023-12-30T01:48:02.155Z,44.88
2023-12-30T01:51:05.797Z,45.35
2023-12-30T01:54:10.163Z,44.17
2023-12-30T01:57:12.731Z,48.38
2023-12-30T02:00:21.647Z,46.78
2023-12-30T02:03:24.290Z,45.60
2023-12-30T02:06:26.452Z,48.03
2023-12-30T02:09:28.533Z,47.90
2023-12-30T02:12:30.560Z,49.95
2023-12-30T02:15:33.109Z,46.15
2023-12-30T02:18:35.540Z,47.38
2023-12-30T02:21:37.728Z,46.45
2023-12-30T02:24:39.742Z,46.40
2023-12-30T02:27:43.664Z,48.40
2023-12-30T02:30:45.850Z,48.75
2023-12-30T02:33:48.017Z,50.47
2023-12-30T02:36:50.069Z,52.17
2023-12-30T02:39:52.342Z,49.80
2023-12-30T02:42:55.078Z,49.70
2023-12-30T02:45:57.180Z,50.40
2023-12-30T02:49:01.742Z,52.80
2023-12-30T02:52:04.099Z,52.53
2023-12-30T02:55:07.379Z,48.20
2023-12-30T02:58:09.790Z,52.70
2023-12-30T03:01:12.408Z,51.38
2023-12-30T03:04:14.924Z,49.50
2023-12-30T03:07:16.996Z,47.00
2023-12-30T03:10:19.686Z,48.97
2023-12-30T03:13:21.734Z,48.22
2023-12-30T03:16:23.914Z,48.47
2023-12-30T03:19:25.983Z,47.78
2023-12-30T03:22:28.214Z,47.78
2023-12-30T03:25:32.774Z,49.95
2023-12-30T03:28:35.008Z,50.42
2023-12-30T03:31:37.720Z,47.00
2023-12-30T03:34:43.033Z,47.58
2023-12-30T03:37:45.131Z,49.40
2023-12-30T03:40:47.148Z,49.30
2023-12-30T03:43:49.973Z,48.90
2023-12-30T03:46:54.431Z,50.00
2023-12-30T03:49:56.498Z,52.40
2023-12-30T03:52:58.587Z,53.40
2023-12-30T03:56:01.325Z,53.95
2023-12-30T03:59:03.387Z,51.05
2023-12-30T04:02:05.816Z,50.72
2023-12-30T04:05:08.541Z,54.38
2023-12-30T04:08:10.887Z,55.10
2023-12-30T04:11:12.980Z,53.25
2023-12-30T04:14:15.160Z,57.67
2023-12-30T04:17:19.661Z,56.55
2023-12-30T04:20:21.729Z,57.35
2023-12-30T04:23:23.942Z,54.47
2023-12-30T04:26:26.197Z,55.67
2023-12-30T04:29:28.450Z,54.20
2023-12-30T04:32:30.503Z,57.08
2023-12-30T04:35:33.038Z,54.78
2023-12-30T04:38:35.078Z,51.00
2023-12-30T04:41:37.364Z,53.20
2023-12-30T04:44:39.466Z,54.75
2023-12-30T04:47:42.748Z,49.97
2023-12-30T04:50:44.869Z,49.13
2023-12-30T04:56:50.843Z,52.65
2023-12-30T04:59:52.951Z,53.85
2023-12-30T05:02:55.227Z,49.70
2023-12-30T05:05:57.533Z,54.42
2023-12-30T05:08:59.937Z,53.72
2023-12-30T05:12:02.299Z,53.22
2023-12-30T05:15:05.244Z,50.03
2023-12-30T05:18:15.211Z,51.05
2023-12-30T05:21:26.279Z,49.30
2023-12-30T05:24:29.000Z,49.90
2023-12-30T05:27:33.814Z,48.70
2023-12-30T05:30:39.537Z,49.42
2023-12-30T05:33:42.114Z,49.03
2023-12-30T05:36:44.668Z,47.33
2023-12-30T05:39:46.971Z,48.13
2023-12-30T05:42:55.783Z,49.45
2023-12-30T05:49:00.227Z,51.47
2023-12-30T05:52:06.380Z,47.38
2023-12-30T05:55:09.322Z,48.67
2023-12-30T05:58:12.193Z,46.25
2023-12-30T06:01:14.735Z,45.70
2023-12-30T06:04:22.067Z,45.63
2023-12-30T06:07:33.154Z,45.92
2023-12-30T06:10:35.679Z,45.83
2023-12-30T06:13:37.974Z,44.05
2023-12-30T06:16:40.424Z,48.13
2023-12-30T06:19:42.511Z,48.08
2023-12-30T06:22:44.939Z,47.53
2023-12-30T06:25:47.064Z,44.58
2023-12-30T06:28:49.702Z,47.42
2023-12-30T06:31:52.131Z,46.70
2023-12-30T06:34:54.923Z,43.88
2023-12-30T06:37:57.035Z,43.22
2023-12-30T06:40:59.087Z,45.45
2023-12-30T06:44:01.224Z,45.88
2023-12-30T06:47:03.314Z,43.88
2023-12-30T06:50:06.812Z,46.80
2023-12-30T06:53:08.949Z,44.55
2023-12-30T06:56:13.764Z,43.15
2023-12-30T06:59:16.833Z,42.95
2023-12-30T07:02:19.090Z,43.58
2023-12-30T07:05:21.613Z,42.55
2023-12-30T07:08:23.820Z,45.38
2023-12-30T07:11:26.099Z,47.90
2023-12-30T07:14:28.527Z,45.45
2023-12-30T07:17:30.864Z,43.10
2023-12-30T07:20:33.110Z,44.40
2023-12-30T07:23:35.407Z,42.95
2023-12-30T07:26:39.939Z,44.28
2023-12-30T07:29:42.677Z,43.75
2023-12-30T07:32:44.817Z,47.45
2023-12-30T07:35:46.945Z,47.55
2023-12-30T07:38:49.006Z,45.97
2023-12-30T07:41:50.995Z,44.58
2023-12-30T07:44:54.196Z,44.60
2023-12-30T07:47:56.822Z,44.00
2023-12-30T07:50:59.721Z,44.45
2023-12-30T07:54:02.574Z,44.78
2023-12-30T07:57:06.209Z,43.88
2023-12-30T08:00:12.834Z,47.47
2023-12-30T08:03:16.260Z,46.53
2023-12-30T08:06:19.314Z,45.88
2023-12-30T08:09:22.627Z,45.92
2023-12-30T08:12:26.252Z,43.47
2023-12-30T08:15:29.696Z,43.47
2023-12-30T08:18:32.666Z,41.63
2023-12-30T08:21:35.642Z,43.13
2023-12-30T08:24:39.024Z,40.83
2023-12-30T08:27:41.902Z,42.58
2023-12-30T08:30:44.993Z,43.58
2023-12-30T08:33:49.817Z,41.85
2023-12-30T08:36:52.473Z,40.90
2023-12-30T08:39:55.389Z,39.95
2023-12-30T08:42:57.649Z,42.28
2023-12-30T08:46:00.134Z,38.25
2023-12-30T08:52:06.470Z,44.55
2023-12-30T08:55:10.878Z,43.30
2023-12-30T08:58:13.839Z,44.70
2023-12-30T09:01:16.117Z,41.80
2023-12-30T09:04:19.483Z,35.88
2023-12-30T09:07:21.715Z,36.03
2023-12-30T09:10:24.101Z,36.42
2023-12-30T09:13:26.239Z,34.90
2023-12-30T09:16:28.414Z,30.15
2023-12-30T09:19:30.710Z,23.52
2023-12-30T09:22:33.323Z,21.90
2023-12-30T09:28:38.175Z,17.48
2023-12-30T09:31:40.777Z,8.60
2023-12-30T09:34:44.377Z,5.70
2023-12-30T09:37:46.874Z,5.25
2023-12-30T09:40:49.075Z,3.85
2023-12-30T09:46:54.627Z,7.15
2023-12-30T09:49:57.302Z,9.57
2023-12-30T09:52:59.629Z,5.75
2023-12-30T09:56:03.416Z,4.18
2023-12-30T09:59:05.732Z,3.67
2023-12-30T10:05:12.456Z,4.70
2023-12-30T10:08:15.600Z,4.78
2023-12-30T10:11:18.544Z,5.63
2023-12-30T10:14:20.972Z,9.52
2023-12-30T10:17:23.442Z,8.30
2023-12-30T10:20:26.211Z,6.82
2023-12-30T10:23:28.886Z,6.25
2023-12-30T10:26:31.891Z,7.22
2023-12-30T10:29:46.081Z,4.38
2023-12-30T10:32:53.421Z,4.50
2023-12-30T10:35:56.706Z,3.30
2023-12-30T10:39:01.878Z,4.00
2023-12-30T10:42:04.517Z,3.60
2023-12-30T10:45:07.197Z,3.40
2023-12-30T10:48:09.980Z,6.82
2023-12-30T10:51:17.692Z,10.00
2023-12-30T10:54:29.133Z,6.00
2023-12-30T10:57:36.579Z,6.80
2023-12-30T11:00:43.748Z,5.25
2023-12-30T11:03:46.837Z,7.25
2023-12-30T11:06:59.131Z,4.35
2023-12-30T11:10:02.782Z,4.25
2023-12-30T11:13:09.710Z,5.53
2023-12-30T11:16:20.817Z,2.45
2023-12-30T11:19:34.562Z,4.25
2023-12-30T11:22:37.872Z,3.92
2023-12-30T11:25:53.397Z,3.47
2023-12-30T11:28:59.712Z,2.58
2023-12-30T11:32:03.743Z,4.07
2023-12-30T11:35:12.637Z,6.30
2023-12-30T11:38:22.016Z,2.97
2023-12-30T11:41:29.470Z,4.53
2023-12-30T11:44:36.869Z,4.93
2023-12-30T11:47:41.098Z,5.55
2023-12-30T12:03:27.448Z,5.85
2023-12-30T12:06:31.222Z,4.82
2023-12-30T12:09:34.106Z,4.47
2023-12-30T12:12:43.806Z,7.57
2023-12-30T12:15:47.267Z,6.95
2023-12-30T12:18:51.407Z,7.60
2023-12-30T12:22:01.409Z,8.63
2023-12-30T12:25:05.010Z,7.80
2023-12-30T12:28:14.869Z,6.40
2023-12-30T12:31:21.166Z,7.55
2023-12-30T12:34:27.630Z,7.82
2023-12-30T12:37:31.933Z,9.25
2023-12-30T12:40:35.830Z,7.30
2023-12-30T12:43:40.899Z,7.15
2023-12-30T12:46:47.139Z,6.75
2023-12-30T12:49:50.834Z,5.95
2023-12-30T12:52:53.996Z,5.93
2023-12-30T12:55:57.769Z,7.57
2023-12-30T12:59:01.804Z,10.32
2023-12-30T13:02:05.386Z,9.50
2023-12-30T13:05:09.134Z,8.95
2023-12-30T13:08:12.811Z,7.38
2023-12-30T13:11:16.182Z,10.95
2023-12-30T13:14:22.676Z,10.90
2023-12-30T13:17:30.225Z,13.65
2023-12-30T13:20:33.677Z,14.35
2023-12-30T13:23:37.378Z,14.57
2023-12-30T13:26:41.019Z,14.70
2023-12-30T13:29:50.651Z,14.75
2023-12-30T13:32:54.460Z,12.60
2023-12-30T13:35:58.212Z,14.27
2023-12-30T13:39:02.436Z,13.93
2023-12-30T13:42:09.583Z,14.10
2023-12-30T13:45:14.007Z,13.40
2023-12-30T13:48:23.012Z,12.55
2023-12-30T13:51:28.093Z,15.65
2023-12-30T13:54:32.601Z,13.38
2023-12-30T13:57:37.577Z,16.65
2023-12-30T14:00:40.711Z,16.02
2023-12-30T14:03:46.001Z,17.45
2023-12-30T14:06:49.960Z,16.13
2023-12-30T14:09:55.373Z,17.58
2023-12-30T14:12:58.905Z,18.45
2023-12-30T14:16:02.290Z,18.55
2023-12-30T14:19:06.469Z,17.60
2023-12-30T14:22:09.646Z,19.30
2023-12-30T14:25:13.766Z,20.88
2023-12-30T14:28:17.255Z,22.38
2023-12-30T14:31:20.292Z,22.40
2023-12-30T14:34:23.573Z,21.10
2023-12-30T14:37:30.422Z,23.02
2023-12-30T14:40:35.034Z,22.10
2023-12-30T14:43:38.491Z,27.52
2023-12-30T14:46:42.067Z,28.08
2023-12-30T14:49:46.623Z,26.63
2023-12-30T14:52:51.347Z,28.88
2023-12-30T14:55:53.796Z,27.70
2023-12-30T14:58:55.946Z,27.48
2023-12-30T15:01:58.891Z,25.48
2023-12-30T15:08:21.137Z,34.83
2023-12-30T15:11:23.454Z,29.20
2023-12-30T15:14:26.077Z,33.38
2023-12-30T15:17:28.253Z,36.78
2023-12-30T15:20:30.437Z,31.90
2023-12-30T15:23:33.531Z,30.58
2023-12-30T15:26:35.676Z,31.42
2023-12-30T15:29:38.513Z,33.17
2023-12-30T15:32:41.868Z,31.92
2023-12-30T15:35:54.367Z,34.42
2023-12-30T15:38:58.093Z,36.80
2023-12-30T15:42:01.343Z,35.53
2023-12-30T15:48:14.615Z,40.85
2023-12-30T15:51:18.484Z,42.42
2023-12-30T15:54:27.053Z,37.58
2023-12-30T15:57:33.571Z,40.72
2023-12-30T16:00:36.858Z,39.80
2023-12-30T16:03:40.627Z,38.88
2023-12-30T16:06:44.293Z,41.20
2023-12-30T16:09:48.316Z,41.92
2023-12-30T16:12:51.232Z,40.90
2023-12-30T16:16:00.656Z,41.90
2023-12-30T16:19:04.201Z,44.90
2023-12-30T16:22:07.138Z,42.25
2023-12-30T16:25:12.378Z,43.38
2023-12-30T16:28:15.730Z,43.25
2023-12-30T16:31:18.729Z,43.47
2023-12-30T16:34:21.955Z,43.40
2023-12-30T16:37:25.402Z,49.25
2023-12-30T16:40:28.262Z,48.25
2023-12-30T16:43:34.061Z,44.00
2023-12-30T16:46:36.186Z,49.25
2023-12-30T16:49:38.295Z,48.47
2023-12-30T16:52:40.379Z,47.95
2023-12-30T16:55:42.652Z,47.83
2023-12-30T16:58:45.279Z,49.75
2023-12-30T17:01:47.665Z,49.30
2023-12-30T17:04:49.903Z,47.78
2023-12-30T17:07:55.459Z,49.30
2023-12-30T17:10:57.504Z,45.90
2023-12-30T17:13:59.678Z,46.70
2023-12-30T17:17:01.804Z,49.63
2023-12-30T17:20:04.383Z,49.78
2023-12-30T17:23:06.832Z,52.25
2023-12-30T17:26:08.881Z,53.85
2023-12-30T17:29:11.467Z,51.15
2023-12-30T17:32:13.717Z,52.53
2023-12-30T17:35:15.992Z,49.58
2023-12-30T17:38:18.308Z,50.45
2023-12-30T17:41:20.332Z,49.85
2023-12-30T17:44:22.365Z,51.50
2023-12-30T17:47:24.400Z,50.90
2023-12-30T17:50:26.533Z,51.90
2023-12-30T17:53:28.909Z,52.28
2023-12-30T17:56:33.974Z,50.42
2023-12-30T17:59:36.188Z,53.95
2023-12-30T18:02:38.514Z,54.80
2023-12-30T18:05:40.734Z,55.75
2023-12-30T18:08:42.911Z,51.60
2023-12-30T18:11:45.066Z,54.80
2023-12-30T18:14:47.139Z,58.75
2023-12-30T18:17:49.316Z,59.22
2023-12-30T18:20:51.670Z,57.08
2023-12-30T18:23:54.265Z,56.88
2023-12-30T18:29:58.606Z,59.30
2023-12-30T18:33:00.906Z,57.88
2023-12-30T18:36:04.055Z,54.95
2023-12-30T18:39:06.453Z,55.90
2023-12-30T18:45:14.186Z,55.20
2023-12-30T18:48:16.367Z,53.33
2023-12-30T18:51:18.536Z,55.03
2023-12-30T18:54:20.541Z,54.58
2023-12-30T18:57:22.894Z,56.25
2023-12-30T19:00:25.041Z,51.95
2023-12-30T19:03:28.560Z,53.42
2023-12-30T19:06:30.901Z,54.42
2023-12-30T19:09:33.115Z,51.95
2023-12-30T19:12:35.377Z,52.75
2023-12-30T19:15:38.104Z,51.65
2023-12-30T19:18:40.219Z,54.20
2023-12-30T19:21:42.334Z,53.30
2023-12-30T19:24:44.301Z,55.50
2023-12-30T19:27:49.033Z,60.40
2023-12-30T19:30:51.131Z,57.17
2023-12-30T19:33:53.526Z,58.75
2023-12-30T19:36:55.997Z,55.85
2023-12-30T19:39:58.045Z,56.55
2023-12-30T19:43:00.158Z,57.40
2023-12-30T19:46:02.417Z,61.70
2023-12-30T19:49:04.598Z,61.42
2023-12-30T19:52:07.634Z,72.97
2023-12-30T19:55:10.062Z,68.20
2023-12-30T19:58:12.305Z,68.25
2023-12-30T20:01:18.693Z,68.82
2023-12-30T20:04:21.172Z,63.30
2023-12-30T20:07:23.745Z,60.40
2023-12-30T20:13:28.129Z,63.28
2023-12-30T20:16:30.391Z,61.28
2023-12-30T20:19:33.669Z,60.97
2023-12-30T20:22:35.818Z,60.67
2023-12-30T20:25:38.036Z,56.22
2023-12-30T20:28:40.277Z,56.17
2023-12-30T20:31:42.258Z,56.80
2023-12-30T20:34:44.481Z,55.45
2023-12-30T20:37:49.311Z,54.45
2023-12-30T20:40:57.788Z,54.95
2023-12-30T20:44:00.548Z,56.03
2023-12-30T20:47:02.904Z,60.45
2023-12-30T20:50:05.316Z,56.65
2023-12-30T20:53:07.471Z,60.05
2023-12-30T20:56:09.717Z,56.70
2023-12-30T20:59:16.181Z,56.72
2023-12-30T21:02:18.271Z,56.58
2023-12-30T21:05:20.398Z,57.05
2023-12-30T21:08:22.912Z,57.35
2023-12-30T21:11:25.002Z,59.42
2023-12-30T21:14:27.307Z,62.10
2023-12-30T21:17:30.040Z,56.55
2023-12-30T21:20:32.131Z,62.28
2023-12-30T21:23:34.263Z,58.58
2023-12-30T21:26:36.303Z,58.55
2023-12-30T21:29:38.793Z,57.78
2023-12-30T21:32:40.794Z,57.03
2023-12-30T21:35:43.764Z,58.42
2023-12-30T21:38:46.423Z,59.70
2023-12-30T21:41:48.612Z,59.72
2023-12-30T21:44:50.841Z,56.33
2023-12-30T21:47:53.363Z,58.85
2023-12-30T21:50:55.409Z,56.67
2023-12-30T21:53:57.528Z,57.92
2023-12-30T21:57:01.657Z,56.45
2023-12-30T22:00:04.067Z,61.80
2023-12-30T22:03:07.036Z,60.40
2023-12-30T22:06:09.421Z,59.38
2023-12-30T22:09:11.575Z,59.55
2023-12-30T22:12:13.599Z,60.30
2023-12-30T22:15:16.024Z,59.00
2023-12-30T22:18:18.646Z,61.72
2023-12-30T22:21:20.873Z,60.90
2023-12-30T22:24:22.946Z,65.95
2023-12-30T22:27:25.065Z,64.88
2023-12-30T22:30:27.556Z,60.78
2023-12-30T22:33:30.136Z,62.63
2023-12-30T22:36:32.514Z,63.22
2023-12-30T22:39:34.501Z,63.72
2023-12-30T22:42:39.527Z,62.85
2023-12-30T22:45:41.550Z,61.92
2023-12-30T22:48:43.591Z,63.85
2023-12-30T22:51:49.874Z,63.72
2023-12-30T22:54:52.042Z,62.00
2023-12-30T22:57:54.312Z,61.55
2023-12-30T23:00:56.678Z,64.55
2023-12-30T23:03:58.908Z,66.22
2023-12-30T23:07:01.220Z,68.07
2023-12-30T23:10:03.793Z,67.40
2023-12-30T23:13:06.020Z,65.63
2023-12-30T23:16:08.693Z,67.10
2023-12-30T23:19:11.039Z,67.85
2023-12-30T23:22:13.658Z,66.57
2023-12-30T23:25:16.693Z,63.92
2023-12-30T23:31:20.757Z,67.32
2023-12-30T23:34:24.913Z,66.65
2023-12-30T23:37:32.741Z,65.80
2023-12-30T23:40:34.862Z,66.90
2023-12-30T23:43:36.911Z,68.75
2023-12-30T23:46:39.285Z,66.18
2023-12-30T23:49:43.787Z,67.72
2023-12-30T23:52:47.289Z,66.93
2023-12-30T23:55:50.513Z,66.57
2023-12-30T23:58:52.561Z,64.85
